Latest Weather Observations for Hunters Hill

IDV60801

Issued at 3:05 pm EST Friday 25 April 2014 (issued every 30 minutes, with the page automatically refreshed every 10 minutes)

About weather observations | Map of weather stations | Latest weather observations for VIC | Other Formats
Station Details ID: 082139 Name: HUNTERS HILL Lat: -36.21 Lon: 147.54 Height: 981.0 m
Data from the previous 72 hours. | See also: Recent months at Hunters Hill
Date/Time
EST
Temp
°C
App
Temp
°C
Dew
Point
Rel
Hum
%
Delta-T
°C
Wind Press
QNH
hPa
Press
MSL
hPa
Rain
since 9 am
mm
Dir
 
Spd
km/h
Gust
km/h
Spd
kts
Gust
kts
25/03:00pm 15.1 13.0 8.3 64 3.6 N 9 15 5 8 - - 0.0
25/02:30pm 16.1 14.6 9.3 64 3.7 N 7 15 4 8 - - 0.0
25/02:00pm 15.7 14.3 8.9 64 3.7 N 6 15 3 8 - - 0.0
25/01:30pm 14.9 12.7 7.9 63 3.7 N 9 17 5 9 - - 0.0
25/01:00pm 14.9 12.5 8.8 67 3.3 NNE 11 20 6 11 - - 0.0
25/12:30pm 14.6 11.6 7.6 63 3.7 N 13 22 7 12 - - 0.0
25/12:00pm 16.0 14.5 9.0 63 3.8 NE 7 17 4 9 - - 0.0
25/11:30am 15.1 13.7 8.8 66 3.4 NNE 6 13 3 7 - - 0.0
25/11:00am 14.1 12.5 7.9 66 3.2 NNE 6 17 3 9 - - 0.0
25/10:30am 13.1 11.3 5.3 59 3.8 N 4 11 2 6 - - 0.0
25/10:00am 13.2 11.4 5.6 60 3.8 W 4 7 2 4 - - 0.0
25/09:30am 11.9 10.3 4.4 60 3.6 W 2 4 1 2 - - 0.0
25/09:00am 11.1 9.1 4.6 64 3.1 W 4 6 2 3 - - 0.0
25/08:30am 10.2 8.7 4.8 69 2.6 W 2 6 1 3 - - 0.0
25/08:00am 8.3 6.5 5.6 83 1.3 WSW 4 6 2 3 - - 0.0
25/07:30am 6.8 5.0 5.6 92 0.6 W 4 7 2 4 - - 0.0
25/07:00am 6.0 3.8 5.4 96 0.3 W 6 7 3 4 - - 0.0
25/06:30am 5.8 4.0 5.5 98 0.1 W 4 6 2 3 - - 0.0
25/06:00am 5.5 4.1 5.4 99 0.0 W 2 6 1 3 - - 0.0
25/05:30am 5.3 3.5 5.2 99 0.0 W 4 6 2 3 - - 0.0
25/05:00am 5.8 4.1 5.7 99 0.0 W 4 7 2 4 - - 0.0
25/04:30am 5.8 3.6 5.4 97 0.2 W 6 7 3 4 - - 0.0
25/04:00am 5.9 4.1 5.3 96 0.3 W 4 6 2 3 - - 0.0
25/03:30am 6.1 4.3 5.5 96 0.3 W 4 7 2 4 - - 0.0
25/03:00am 6.2 4.5 5.8 97 0.2 W 4 6 2 3 - - 0.0
25/02:30am 6.2 4.1 5.6 96 0.3 W 6 7 3 4 - - 0.0
25/02:00am 6.8 5.2 6.5 98 0.1 W 4 6 2 3 - - 0.0
25/01:30am 6.6 5.4 6.5 99 0.0 W 2 4 1 2 - - 0.0
25/01:00am 6.9 5.3 6.5 97 0.2 W 4 6 2 3 - - 0.0
25/12:30am 7.5 6.1 7.1 97 0.2 W 4 6 2 3 - - 0.0
25/12:00am 7.9 7.2 6.8 93 0.5 CALM 0 0 0 0 - - 0.0
 
Date/Time
EST
Temp
°C
App
Temp
°C
Dew
Point
Rel
Hum
%
Delta-T
°C
Wind Press
QNH
hPa
Press
MSL
hPa
Rain
since 9 am
mm
Dir
 
Spd
km/h
Gust
km/h
Spd
kts
Gust
kts
24/11:30pm 8.3 7.6 7.1 92 0.6 CALM 0 0 0 0 - - 0.0
24/11:00pm 8.5 7.5 5.8 83 1.3 CALM 0 0 0 0 - - 0.0
24/10:30pm 8.7 7.3 5.6 81 1.5 W 2 4 1 2 - - 0.0
24/10:00pm 8.5 7.6 6.0 84 1.2 CALM 0 0 0 0 - - 0.0
24/09:30pm 8.6 7.4 6.4 86 1.1 W 2 4 1 2 - - 0.0
24/09:00pm 8.7 7.8 6.0 83 1.3 CALM 0 0 0 0 - - 0.0
24/08:30pm 9.2 8.3 5.9 80 1.6 CALM 0 0 0 0 - - 0.0
24/08:00pm 9.2 8.5 7.0 86 1.1 CALM 0 0 0 0 - - 0.0
24/07:30pm 9.2 8.4 8.0 92 0.6 WSW 2 6 1 3 - - 0.0
24/07:00pm 9.1 7.8 7.7 91 0.7 WSW 4 6 2 3 - - 0.0
24/06:30pm 9.4 8.1 7.5 88 1.0 WSW 4 7 2 4 - - 0.0
24/06:00pm 9.6 8.2 7.4 86 1.1 W 4 7 2 4 - - 0.0
24/05:30pm 10.5 9.5 7.2 80 1.7 WSW 2 6 1 3 - - 0.0
24/05:00pm 12.0 10.3 7.5 74 2.3 WSW 6 9 3 5 - - 0.0
24/04:30pm 11.6 9.0 6.1 69 2.7 W 9 17 5 9 - - 0.0
24/04:00pm 12.8 10.1 7.5 70 2.7 W 11 22 6 12 - - 0.0
24/03:30pm 13.1 10.9 7.8 70 2.8 WNW 9 19 5 10 - - 0.0
24/03:00pm 11.6 9.6 6.9 73 2.4 W 7 19 4 10 - - 0.0
24/02:30pm 12.1 9.7 7.2 72 2.5 WNW 9 22 5 12 - - 0.0
24/02:00pm 11.9 9.9 7.0 72 2.5 W 7 17 4 9 - - 0.0
24/01:30pm 13.3 11.5 7.1 66 3.2 NW 6 22 3 12 - - 0.0
24/01:00pm 11.8 8.8 6.1 68 2.8 W 11 26 6 14 - - 0.0
24/12:30pm 12.4 8.9 5.3 62 3.5 W 13 26 7 14 - - 0.0
24/12:00pm 11.9 7.8 4.4 60 3.6 W 15 30 8 16 - - 0.0
24/11:30am 11.9 8.3 3.2 55 4.1 W 11 20 6 11 - - 0.0
24/11:00am 12.1 8.2 3.6 56 4.0 W 13 22 7 12 - - 0.0
24/10:30am 12.2 9.2 4.2 58 3.8 W 9 19 5 10 - - 0.0
24/10:00am 11.5 8.8 3.8 59 3.6 W 7 17 4 9 - - 0.0
24/09:30am 11.8 9.5 5.0 63 3.3 W 6 9 3 5 - - 0.0
24/09:00am 10.8 8.3 4.7 66 2.9 W 7 15 4 8 - - 0.0
24/08:30am 10.1 7.0 5.7 74 2.1 W 11 19 6 10 - - 0.0
24/08:00am 9.3 7.2 6.6 83 1.3 W 7 13 4 7 - - 0.0
24/07:30am 9.5 7.6 7.6 88 1.0 W 7 17 4 9 - - 0.0
24/07:00am 10.0 7.7 7.3 83 1.4 W 9 19 5 10 - - 0.0
24/06:30am 10.3 7.6 7.2 81 1.6 WNW 11 19 6 10 - - 0.0
24/06:00am 10.1 8.5 8.7 91 0.7 WNW 7 13 4 7 - - 0.0
24/05:30am 10.3 8.7 8.9 91 0.7 WNW 7 15 4 8 - - 0.0
24/05:00am 10.5 9.1 8.9 90 0.8 WNW 6 11 3 6 - - 0.0
24/04:30am 10.7 9.4 9.1 90 0.8 NW 6 11 3 6 - - 0.0
24/04:00am 10.8 9.5 9.1 89 0.9 WNW 6 15 3 8 - - 0.0
24/03:30am 10.9 9.7 9.7 92 0.6 NW 6 11 3 6 - - 0.0
24/03:00am 11.0 9.9 10.1 94 0.5 NNW 6 11 3 6 - - 0.0
24/02:30am 10.9 9.8 10.1 95 0.4 NNW 6 11 3 6 - - 0.0
24/02:00am 10.6 9.9 10.1 97 0.3 WNW 4 7 2 4 - - 0.0
24/01:30am 10.8 10.2 10.5 98 0.2 WNW 4 7 2 4 - - 0.0
24/01:00am 11.0 10.0 10.4 96 0.3 WNW 6 9 3 5 - - 0.0
24/12:30am 11.0 9.9 10.7 98 0.2 WNW 7 11 4 6 - - 0.0
24/12:00am 11.2 10.1 10.7 97 0.3 WNW 7 11 4 6 - - 0.0
 
Date/Time
EST
Temp
°C
App
Temp
°C
Dew
Point
Rel
Hum
%
Delta-T
°C
Wind Press
QNH
hPa
Press
MSL
hPa
Rain
since 9 am
mm
Dir
 
Spd
km/h
Gust
km/h
Spd
kts
Gust
kts
23/11:30pm 11.1 10.2 10.5 96 0.3 NW 6 9 3 5 - - 0.0
23/11:00pm 11.0 9.9 9.9 93 0.6 NW 6 7 3 4 - - 0.0
23/10:30pm 11.1 10.0 9.9 92 0.6 NW 6 9 3 5 - - 0.0
23/10:00pm 11.4 10.3 9.8 90 0.9 NW 6 9 3 5 - - 0.0
23/09:30pm 11.7 10.3 9.6 87 1.1 NNW 7 13 4 7 - - 0.0
23/09:00pm 11.7 10.3 9.4 86 1.2 NNW 7 11 4 6 - - 0.0
23/08:30pm 12.0 10.2 9.6 85 1.3 N 9 15 5 8 - - 0.0
23/08:00pm 12.0 10.8 9.6 85 1.3 NNW 6 13 3 7 - - 0.0
23/07:30pm 12.0 10.8 9.6 85 1.3 NNW 6 11 3 6 - - 0.0
23/07:00pm 12.0 10.8 9.4 84 1.4 NW 6 11 3 6 - - 0.0
23/06:30pm 12.2 10.9 9.2 82 1.6 N 6 9 3 5 - - 0.0
23/06:00pm 12.2 11.2 9.0 81 1.7 NW 4 7 2 4 - - 0.0
23/05:30pm 12.6 11.0 8.9 78 2.0 NW 7 15 4 8 - - 0.0
23/05:00pm 13.7 12.3 9.0 73 2.5 NW 6 11 3 6 - - 0.0
23/04:30pm 13.7 12.5 9.4 75 2.3 N 6 9 3 5 - - 0.0
23/04:00pm 14.3 12.8 9.3 72 2.7 NW 7 13 4 7 - - 0.0
23/03:30pm 14.3 13.2 9.9 75 2.4 N 6 13 3 7 - - 0.0
23/03:00pm 14.1 12.8 9.3 73 2.6 NNW 6 11 3 6 - - 0.0
23/02:30pm 14.3 12.4 8.9 70 2.9 NW 9 19 5 10 - - 0.0
23/02:00pm 13.6 11.2 8.7 72 2.6 WNW 11 20 6 11 - - 0.0
23/01:30pm 14.2 11.8 8.8 70 2.9 NW 11 22 6 12 - - 0.0
23/01:00pm 14.1 11.8 8.9 71 2.8 NW 11 20 6 11 - - 0.0
23/12:30pm 14.1 12.2 9.1 72 2.7 NW 9 19 5 10 - - 0.0
23/12:00pm 13.7 12.3 9.6 76 2.2 N 7 15 4 8 - - 0.0
23/11:30am 14.8 13.5 10.0 73 2.6 N 7 17 4 9 - - 0.0
23/11:00am 14.7 13.7 10.9 78 2.1 NNE 7 13 4 7 - - 0.0
23/10:30am 13.4 11.6 9.3 76 2.2 N 9 20 5 11 - - 0.0
23/10:00am 12.8 11.4 10.9 88 1.0 N 9 17 5 9 - - 0.0
23/09:30am 11.7 11.5 11.7 100 0.0 NE 4 7 2 4 - - 0.0
23/09:00am 9.8 9.4 9.7 99 0.1 ENE 2 9 1 5 - - 4.2
23/08:30am 10.3 10.1 10.3 100 0.0 NE 2 6 1 3 - - 3.8
23/08:00am 9.1 7.8 9.1 100 0.0 NE 6 9 3 5 - - 3.8
23/07:30am 8.8 7.4 8.8 100 0.0 NNE 6 7 3 4 - - 3.8
23/07:00am 8.7 7.3 8.7 100 0.0 NNE 6 9 3 5 - - 3.8
23/06:30am 8.9 7.5 8.8 99 0.1 NNE 6 11 3 6 - - 3.8
23/06:00am 8.9 8.3 8.8 99 0.1 NE 2 9 1 5 - - 2.0
23/05:30am 9.1 8.1 9.0 99 0.1 NE 4 7 2 4 - - 1.0
23/05:00am 9.1 7.6 8.5 96 0.3 NNE 6 15 3 8 - - 1.0
23/04:30am 10.7 9.1 6.5 75 2.1 NNE 4 6 2 3 - - 0.0
23/04:00am 11.0 9.0 6.4 73 2.3 NNE 6 11 3 6 - - 0.0
23/03:30am 10.8 8.6 6.4 74 2.2 NNE 7 13 4 7 - - 0.0
23/03:00am 10.7 8.8 6.6 76 2.0 NNE 6 11 3 6 - - 0.0
23/02:30am 10.6 8.6 6.9 78 1.9 NNE 7 17 4 9 - - 0.0
23/02:00am 10.9 8.8 6.6 75 2.1 NNE 7 13 4 7 - - 0.0
23/01:30am 11.2 9.1 6.7 74 2.3 NNE 7 15 4 8 - - 0.0
23/01:00am 10.9 9.1 7.0 77 2.0 NNE 6 9 3 5 - - 0.0
23/12:30am 10.8 8.9 6.9 77 2.0 NNE 6 9 3 5 - - 0.0
23/12:00am 10.8 8.9 6.7 76 2.0 NNE 6 9 3 5 - - 0.0
 
Date/Time
EST
Temp
°C
App
Temp
°C
Dew
Point
Rel
Hum
%
Delta-T
°C
Wind Press
QNH
hPa
Press
MSL
hPa
Rain
since 9 am
mm
Dir
 
Spd
km/h
Gust
km/h
Spd
kts
Gust
kts
22/11:30pm 11.6 9.5 6.7 72 2.5 NNE 7 15 4 8 - - 0.0
22/11:00pm 11.9 9.5 6.8 71 2.6 NNE 9 15 5 8 - - 0.0
22/10:30pm 12.2 9.8 6.9 70 2.7 N 9 15 5 8 - - 0.0
22/10:00pm 11.5 9.5 7.2 75 2.2 NNE 7 15 4 8 - - 0.0
22/09:30pm 11.5 9.9 7.8 78 1.9 ENE 6 7 3 4 - - 0.0
22/09:00pm 11.2 9.6 7.9 80 1.7 E 6 7 3 4 - - 0.0
22/08:30pm 11.3 9.8 8.3 82 1.6 E 6 7 3 4 - - 0.0
22/08:00pm 11.8 10.1 7.7 76 2.1 NNE 6 7 3 4 - - 0.0
22/07:30pm 11.7 10.0 7.4 75 2.2 NNE 6 7 3 4 - - 0.0
22/07:00pm 11.9 10.3 7.8 76 2.1 NNE 6 7 3 4 - - 0.0
22/06:30pm 11.9 10.3 8.2 78 1.9 NNE 6 9 3 5 - - 0.0
22/06:00pm 12.0 10.5 8.3 78 1.9 NNE 6 9 3 5 - - 0.0
22/05:30pm 12.8 11.7 8.5 75 2.3 NE 4 7 2 4 - - 0.0
22/05:00pm 13.0 12.3 8.7 75 2.3 NE 2 6 1 3 - - 0.0
22/04:30pm 13.9 12.8 8.5 70 2.9 NE 4 7 2 4 - - 0.0
22/04:00pm 15.2 13.9 7.7 61 3.9 NNE 4 11 2 6 - - 0.0
22/03:30pm 14.8 12.7 5.9 55 4.5 N 6 11 3 6 - - 0.0

Other Formats:

Comma delimited format used in spreadsheet applications
http://www.bom.gov.au/fwo/IDV60801/IDV60801.94878.axf

JavaScript Object Notation format (JSON) in row-major order
http://www.bom.gov.au/fwo/IDV60801/IDV60801.94878.json